createdAt,value
2023-03-22T00:00:18.197Z,968.0808
2023-03-22T00:01:19.606Z,968.0685
2023-03-22T00:02:21.054Z,968.0569
2023-03-22T00:03:22.510Z,968.0469
2023-03-22T00:04:23.861Z,968.0600
2023-03-22T00:05:25.289Z,968.0623
2023-03-22T00:06:26.724Z,968.0630
2023-03-22T00:07:28.153Z,968.0577
2023-03-22T00:08:29.558Z,968.0500
2023-03-22T00:09:30.974Z,968.0392
2023-03-22T00:10:32.398Z,968.0331
2023-03-22T00:11:33.806Z,968.0377
2023-03-22T00:12:35.254Z,968.0262
2023-03-22T00:13:36.681Z,968.0285
2023-03-22T00:14:38.106Z,968.0339
2023-03-22T00:15:39.560Z,968.0177
2023-03-22T00:16:40.934Z,968.0131
2023-03-22T00:17:42.344Z,968.0070
2023-03-22T00:18:43.767Z,968.0192
2023-03-22T00:19:45.202Z,968.0361
2023-03-22T00:20:46.618Z,968.0453
2023-03-22T00:21:48.034Z,968.0585
2023-03-22T00:22:49.460Z,968.0554
2023-03-22T00:23:50.886Z,968.0615
2023-03-22T00:24:52.322Z,968.0700
2023-03-22T00:25:53.718Z,968.0808
2023-03-22T00:26:55.156Z,968.0992
2023-03-22T00:27:56.576Z,968.1130
2023-03-22T00:28:58.016Z,968.1215
2023-03-22T00:29:59.547Z,968.1208
2023-03-22T00:31:00.948Z,968.1138
2023-03-22T00:32:02.291Z,968.1077
2023-03-22T00:33:03.726Z,968.1100
2023-03-22T00:34:05.132Z,968.1161
2023-03-22T00:35:06.574Z,968.1292
2023-03-22T00:36:07.988Z,968.1477
2023-03-22T00:37:09.432Z,968.1508
2023-03-22T00:38:10.841Z,968.1584
2023-03-22T00:39:12.263Z,968.1469
2023-03-22T00:40:13.676Z,968.1346
2023-03-22T00:41:15.115Z,968.1177
2023-03-22T00:42:16.528Z,968.1000
2023-03-22T00:43:17.966Z,968.0770
2023-03-22T00:44:19.377Z,968.0608
2023-03-22T00:45:20.823Z,968.0346
2023-03-22T00:46:22.320Z,968.0146
2023-03-22T00:47:23.667Z,967.9923
2023-03-22T00:48:25.111Z,967.9892
2023-03-22T00:49:26.514Z,967.9815
2023-03-22T00:50:27.926Z,967.9746
2023-03-22T00:51:29.364Z,967.9585
2023-03-22T00:52:30.767Z,967.9415
2023-03-22T00:53:32.195Z,967.9385
2023-03-22T00:54:33.619Z,967.9385
2023-03-22T00:55:35.051Z,967.9408
2023-03-22T00:56:36.488Z,967.9500
2023-03-22T00:57:37.952Z,967.9700
2023-03-22T00:58:39.317Z,967.9861
2023-03-22T00:59:40.757Z,967.9954
2023-03-22T01:00:42.518Z,968.0031
2023-03-22T01:01:43.602Z,967.9985
2023-03-22T01:02:45.038Z,967.9946
2023-03-22T01:03:46.489Z,967.9938
2023-03-22T01:04:47.887Z,968.0038
2023-03-22T01:05:49.409Z,968.0177
2023-03-22T01:06:50.820Z,968.0354
2023-03-22T01:07:52.239Z,968.0423
2023-03-22T01:08:53.672Z,968.0453
2023-03-22T01:09:55.099Z,968.0385
2023-03-22T01:10:56.521Z,968.0292
2023-03-22T01:11:57.928Z,968.0085
2023-03-22T01:12:59.360Z,967.9908
2023-03-22T01:14:00.794Z,967.9731
2023-03-22T01:15:02.242Z,967.9615
2023-03-22T01:16:03.661Z,967.9569
2023-03-22T01:17:05.077Z,967.9639
2023-03-22T01:18:06.508Z,967.9631
2023-03-22T01:19:07.918Z,967.9646
2023-03-22T01:20:09.355Z,967.9608
2023-03-22T01:21:10.766Z,967.9554
2023-03-22T01:22:12.195Z,967.9454
2023-03-22T01:23:13.631Z,967.9438
2023-03-22T01:24:15.039Z,967.9408
2023-03-22T01:25:16.448Z,967.9370
2023-03-22T01:26:17.903Z,967.9300
2023-03-22T01:27:19.306Z,967.9254
2023-03-22T01:28:20.761Z,967.9000
2023-03-22T01:29:22.161Z,967.8877
2023-03-22T01:30:23.607Z,967.8815
2023-03-22T01:31:25.007Z,967.8692
2023-03-22T01:32:26.443Z,967.8692
2023-03-22T01:33:27.873Z,967.8623
2023-03-22T01:34:29.301Z,967.8446
2023-03-22T01:35:30.781Z,967.8392
2023-03-22T01:36:32.158Z,967.8315
2023-03-22T01:37:33.593Z,967.8315
2023-03-22T01:38:35.041Z,967.8339
2023-03-22T01:39:36.441Z,967.8377
2023-03-22T01:40:38.319Z,967.8354
2023-03-22T01:41:39.289Z,967.8254
2023-03-22T01:42:40.722Z,967.8208
2023-03-22T01:43:42.196Z,967.8115
2023-03-22T01:44:43.579Z,967.8130
2023-03-22T01:45:45.003Z,967.8030
2023-03-22T01:46:46.438Z,967.7985
2023-03-22T01:47:47.846Z,967.7892
2023-03-22T01:48:49.327Z,967.7953
2023-03-22T01:49:50.705Z,967.7900
2023-03-22T01:50:52.139Z,967.7908
2023-03-22T01:51:53.557Z,967.7931
2023-03-22T01:52:54.988Z,967.7977
2023-03-22T01:53:56.423Z,967.7977
2023-03-22T01:54:57.835Z,967.7953
2023-03-22T01:55:59.260Z,967.7977
2023-03-22T01:57:00.697Z,967.7854
2023-03-22T01:58:02.101Z,967.7762
2023-03-22T01:59:03.537Z,967.7562
2023-03-22T02:00:04.945Z,967.7369
2023-03-22T02:01:06.469Z,967.7123
2023-03-22T02:02:07.797Z,967.6992
2023-03-22T02:03:09.220Z,967.6938
2023-03-22T02:04:10.656Z,967.6915
2023-03-22T02:05:12.090Z,967.7000
2023-03-22T02:06:13.515Z,967.7177
2023-03-22T02:07:14.916Z,967.7354
2023-03-22T02:08:16.345Z,967.7554
2023-03-22T02:09:17.783Z,967.7554
2023-03-22T02:10:19.201Z,967.7523
2023-03-22T02:11:20.648Z,967.7423
2023-03-22T02:12:22.055Z,967.7269
2023-03-22T02:13:23.504Z,967.7131
2023-03-22T02:14:27.191Z,967.7115
2023-03-22T02:15:26.311Z,967.7069
2023-03-22T02:16:27.752Z,967.7039
2023-03-22T02:17:29.174Z,967.7161
2023-03-22T02:18:30.568Z,967.7154
2023-03-22T02:19:31.986Z,967.7215
2023-03-22T02:20:33.393Z,967.7131
2023-03-22T02:21:34.812Z,967.7154
2023-03-22T02:22:36.210Z,967.7184
2023-03-22T02:23:37.682Z,967.7200
2023-03-22T02:24:39.073Z,967.7184
2023-03-22T02:25:40.501Z,967.7223
2023-03-22T02:26:41.913Z,967.7223
2023-03-22T02:27:43.341Z,967.7269
2023-03-22T02:28:44.828Z,967.7223
2023-03-22T02:29:46.194Z,967.7200
2023-03-22T02:30:47.606Z,967.7131
2023-03-22T02:31:49.047Z,967.7077
2023-03-22T02:32:50.437Z,967.6954
2023-03-22T02:33:51.871Z,967.6854
2023-03-22T02:34:53.274Z,967.6685
2023-03-22T02:35:54.716Z,967.6600
2023-03-22T02:36:56.124Z,967.6546
2023-03-22T02:37:57.579Z,967.6600
2023-03-22T02:38:58.961Z,967.6623
2023-03-22T02:40:00.374Z,967.6723
2023-03-22T02:41:01.797Z,967.6854
2023-03-22T02:42:03.242Z,967.6977
2023-03-22T02:43:04.632Z,967.7092
2023-03-22T02:44:06.081Z,967.7054
2023-03-22T02:45:07.472Z,967.7077
2023-03-22T02:46:09.020Z,967.7008
2023-03-22T02:47:10.318Z,967.6908
2023-03-22T02:48:11.805Z,967.6854
2023-03-22T02:49:13.193Z,967.6830
2023-03-22T02:50:14.588Z,967.6870
2023-03-22T02:51:15.996Z,967.6908
2023-03-22T02:52:17.437Z,967.6931
2023-03-22T02:53:18.849Z,967.6992
2023-03-22T02:54:20.307Z,967.7100
2023-03-22T02:55:21.675Z,967.7077
2023-03-22T02:56:23.136Z,967.7015
2023-03-22T02:57:24.528Z,967.6846
2023-03-22T02:58:25.964Z,967.6785
2023-03-22T02:59:27.373Z,967.6715
2023-03-22T03:00:28.844Z,967.6815
2023-03-22T03:01:30.295Z,967.6862
2023-03-22T03:02:31.684Z,967.7031
2023-03-22T03:03:33.071Z,967.7215
2023-03-22T03:04:34.507Z,967.7300
2023-03-22T03:05:35.906Z,967.7361
2023-03-22T03:06:37.347Z,967.7377
2023-03-22T03:07:38.774Z,967.7430
2023-03-22T03:08:40.188Z,967.7477
2023-03-22T03:09:41.623Z,967.7685
2023-03-22T03:10:43.049Z,967.7747
2023-03-22T03:11:44.472Z,967.7762
2023-03-22T03:12:45.891Z,967.7777
2023-03-22T03:13:47.307Z,967.7739
2023-03-22T03:14:48.741Z,967.7685
2023-03-22T03:15:50.155Z,967.7577
2023-03-22T03:16:51.591Z,967.7492
2023-03-22T03:17:52.999Z,967.7300
2023-03-22T03:18:54.413Z,967.7200
2023-03-22T03:19:55.830Z,967.7169
2023-03-22T03:20:57.269Z,967.7208
2023-03-22T03:21:58.680Z,967.7269
2023-03-22T03:23:00.112Z,967.7392
2023-03-22T03:24:01.544Z,967.7423
2023-03-22T03:25:02.938Z,967.7523
2023-03-22T03:26:04.352Z,967.7585
2023-03-22T03:27:05.775Z,967.7585
2023-03-22T03:28:07.238Z,967.7562
2023-03-22T03:29:08.627Z,967.7446
2023-03-22T03:30:10.079Z,967.7392
2023-03-22T03:31:11.544Z,967.7323
2023-03-22T03:32:12.905Z,967.7238
2023-03-22T03:33:14.421Z,967.7154
2023-03-22T03:34:15.757Z,967.7115
2023-03-22T03:35:17.203Z,967.7138
2023-03-22T03:36:18.596Z,967.7161
2023-03-22T03:37:20.015Z,967.7323
2023-03-22T03:38:21.442Z,967.7430
2023-03-22T03:39:22.845Z,967.7492
2023-03-22T03:40:24.280Z,967.7639
2023-03-22T03:41:25.697Z,967.7747
2023-03-22T03:42:27.121Z,967.7869
2023-03-22T03:43:28.554Z,967.7985
2023-03-22T03:44:29.988Z,967.8085
2023-03-22T03:45:31.405Z,967.8162
2023-03-22T03:46:32.829Z,967.8223
2023-03-22T03:47:34.248Z,967.8392
2023-03-22T03:48:35.687Z,967.8546
2023-03-22T03:49:37.091Z,967.8661
2023-03-22T03:50:38.868Z,967.8800
2023-03-22T03:51:39.916Z,967.8823
2023-03-22T03:52:41.376Z,967.8870
2023-03-22T03:53:42.767Z,967.8892
2023-03-22T03:54:44.204Z,967.8908
2023-03-22T03:55:45.610Z,967.8954
2023-03-22T03:56:47.033Z,967.8954
2023-03-22T03:57:48.453Z,967.9046
2023-03-22T03:58:49.876Z,967.9077
2023-03-22T03:59:51.316Z,967.9077
2023-03-22T04:00:52.751Z,967.9046
2023-03-22T04:01:54.238Z,967.9046
2023-03-22T04:02:55.576Z,967.9046
2023-03-22T04:03:57.017Z,967.9084
2023-03-22T04:04:58.431Z,967.9069
2023-03-22T04:05:59.971Z,967.9092
2023-03-22T04:07:01.273Z,967.9016
2023-03-22T04:08:02.691Z,967.8908
2023-03-22T04:09:04.138Z,967.8854
2023-03-22T04:10:05.570Z,967.8823
2023-03-22T04:11:06.976Z,967.8854
2023-03-22T04:12:08.403Z,967.8738
2023-03-22T04:13:09.794Z,967.8762
2023-03-22T04:14:11.209Z,967.8815
2023-03-22T04:15:12.638Z,967.8908
2023-03-22T04:16:14.114Z,967.8931
2023-03-22T04:17:15.485Z,967.9061
2023-03-22T04:18:16.896Z,967.9100
2023-03-22T04:19:18.317Z,967.9192
2023-03-22T04:20:19.753Z,967.9300
2023-03-22T04:21:21.212Z,967.9338
2023-03-22T04:22:22.587Z,967.9338
2023-03-22T04:23:24.033Z,967.9254
2023-03-22T04:24:25.476Z,967.9077
2023-03-22T04:25:26.859Z,967.8908
2023-03-22T04:26:28.289Z,967.8900
2023-03-22T04:27:29.714Z,967.8831
2023-03-22T04:28:31.119Z,967.8823
2023-03-22T04:29:32.546Z,967.8846
2023-03-22T04:30:33.970Z,967.8885
2023-03-22T04:31:35.395Z,967.8777
2023-03-22T04:32:36.819Z,967.8762
2023-03-22T04:33:38.251Z,967.8738
2023-03-22T04:34:39.679Z,967.8561
2023-03-22T04:35:41.154Z,967.8531
2023-03-22T04:36:42.526Z,967.8484
2023-03-22T04:37:43.949Z,967.8423
2023-03-22T04:38:45.367Z,967.8439
2023-03-22T04:39:46.801Z,967.8408
2023-03-22T04:40:48.215Z,967.8277
2023-03-22T04:41:49.635Z,967.8115
2023-03-22T04:42:51.055Z,967.7961
2023-03-22T04:43:52.520Z,967.7808
2023-03-22T04:44:53.894Z,967.7715
2023-03-22T04:45:55.365Z,967.7670
2023-03-22T04:46:56.735Z,967.6423
2023-03-22T04:47:58.169Z,967.4985
2023-03-22T04:48:59.570Z,967.4462
2023-03-22T04:50:01.006Z,967.3877
2023-03-22T04:51:02.424Z,967.3947
2023-03-22T04:52:03.836Z,967.3984
2023-03-22T04:53:05.261Z,967.3839
2023-03-22T04:54:06.702Z,967.4323
2023-03-22T04:55:08.121Z,967.5477
2023-03-22T04:56:09.531Z,967.6446
2023-03-22T04:57:10.960Z,967.6870
2023-03-22T04:58:12.370Z,967.7361
2023-03-22T04:59:13.782Z,967.7723
2023-03-22T05:00:15.288Z,967.7723
